createdAt,value
2016-04-17T00:02:44.338Z,8.3
2016-04-17T00:05:47.004Z,8.3
2016-04-17T00:08:59.577Z,8.3
2016-04-17T00:12:12.132Z,8.3
2016-04-17T00:15:24.780Z,8.3
2016-04-17T00:18:42.022Z,8.4
2016-04-17T00:21:44.453Z,8.4
2016-04-17T00:24:57.135Z,8.4
2016-04-17T00:28:09.533Z,8.4
2016-04-17T00:31:21.432Z,8.5
2016-04-17T00:34:38.846Z,8.4
2016-04-17T00:37:41.324Z,8.5
2016-04-17T00:40:51.678Z,8.5
2016-04-17T00:44:05.889Z,8.4
2016-04-17T00:47:18.412Z,8.5
2016-04-17T00:50:30.562Z,8.5
2016-04-17T00:53:42.711Z,8.5
2016-04-17T00:56:54.846Z,8.5
2016-04-17T01:00:06.652Z,8.5
2016-04-17T01:03:18.737Z,8.5
2016-04-17T01:06:35.777Z,8.5
2016-04-17T01:09:43.268Z,8.4
2016-04-17T01:12:45.715Z,8.4
2016-04-17T01:15:56.881Z,8.5
2016-04-17T01:19:09.249Z,8.5
2016-04-17T01:22:21.756Z,8.5
2016-04-17T01:25:39.031Z,8.5
2016-04-17T01:28:41.460Z,8.5
2016-04-17T01:31:53.862Z,8.5
2016-04-17T01:35:06.355Z,8.4
2016-04-17T01:38:18.581Z,8.4
2016-04-17T01:41:31.027Z,8.3
2016-04-17T01:44:43.378Z,8.2
2016-04-17T01:47:55.670Z,8.1
2016-04-17T01:51:07.850Z,8
2016-04-17T01:54:20.281Z,8
2016-04-17T01:57:37.554Z,7.9
2016-04-17T02:00:44.984Z,7.9
2016-04-17T02:03:47.304Z,7.9
2016-04-17T02:06:59.534Z,7.8
2016-04-17T02:10:11.965Z,7.8
2016-04-17T02:13:24.378Z,7.7
2016-04-17T02:16:41.668Z,7.7
2016-04-17T02:19:44.034Z,7.7
2016-04-17T02:22:54.566Z,7.7
2016-04-17T02:26:06.808Z,7.7
2016-04-17T02:29:19.129Z,7.6
2016-04-17T02:32:28.450Z,7.6
2016-04-17T02:35:45.302Z,7.5
2016-04-17T02:38:47.857Z,7.5
2016-04-17T02:41:59.961Z,7.5
2016-04-17T02:45:12.267Z,7.5
2016-04-17T02:48:24.586Z,7.5
2016-04-17T02:51:42.033Z,7.5
2016-04-17T02:54:44.352Z,7.5
2016-04-17T02:57:59.785Z,7.5
2016-04-17T03:01:09.355Z,7.5
2016-04-17T03:04:21.411Z,7.4
2016-04-17T03:07:38.544Z,7.4
2016-04-17T03:10:41.099Z,7.4
2016-04-17T03:13:53.485Z,7.4
2016-04-17T03:17:05.742Z,7.4
2016-04-17T03:20:18.031Z,7.4
2016-04-17T03:23:27.290Z,7.4
2016-04-17T03:26:44.611Z,7.4
2016-04-17T03:29:47.087Z,7.4
2016-04-17T03:32:59.395Z,7.4
2016-04-17T03:36:11.622Z,7.4
2016-04-17T03:39:23.895Z,7.4
2016-04-17T03:42:41.357Z,7.4
2016-04-17T03:45:43.881Z,7.4
2016-04-17T03:48:55.985Z,7.3
2016-04-17T03:52:07.992Z,7.3
2016-04-17T03:55:20.533Z,7.3
2016-04-17T03:58:37.619Z,7.3
2016-04-17T04:01:45.158Z,7.3
2016-04-17T04:04:47.525Z,7.3
2016-04-17T04:07:59.193Z,7.3
2016-04-17T04:11:10.684Z,7.3
2016-04-17T04:14:22.896Z,7.3
2016-04-17T04:17:40.310Z,7.3
2016-04-17T04:20:42.693Z,7.2
2016-04-17T04:23:53.079Z,7.3
2016-04-17T04:27:05.383Z,7.3
2016-04-17T04:30:17.752Z,7.3
2016-04-17T04:33:30.072Z,7.2
2016-04-17T04:36:42.315Z,7.1
2016-04-17T04:39:54.654Z,7.1
2016-04-17T04:43:07.240Z,7.1
2016-04-17T04:46:19.575Z,7.1
2016-04-17T04:49:36.803Z,7.1
2016-04-17T04:52:44.358Z,7.2
2016-04-17T04:55:46.741Z,7.2
2016-04-17T04:58:56.110Z,7.2
2016-04-17T05:02:08.213Z,7.3
2016-04-17T05:05:20.486Z,7.3
2016-04-17T05:08:30.588Z,7.2
2016-04-17T05:11:42.830Z,7.2
2016-04-17T05:14:55.122Z,7.2
2016-04-17T05:18:07.271Z,7.1
2016-04-17T05:21:19.435Z,7.1
2016-04-17T05:24:36.756Z,7
2016-04-17T05:27:44.108Z,7
2016-04-17T05:30:46.678Z,7
2016-04-17T05:33:58.939Z,7
2016-04-17T05:37:11.150Z,6.9
2016-04-17T05:40:23.408Z,6.8
2016-04-17T05:43:40.620Z,6.8
2016-04-17T05:46:43.112Z,6.8
2016-04-17T05:49:55.357Z,6.8
2016-04-17T05:53:07.740Z,6.8
2016-04-17T05:56:20.561Z,6.8
2016-04-17T05:59:30.631Z,6.8
2016-04-17T06:02:42.265Z,6.8
2016-04-17T06:05:51.842Z,6.8
2016-04-17T06:09:04.448Z,6.7
2016-04-17T06:12:16.702Z,6.7
2016-04-17T06:15:29.149Z,6.7
2016-04-17T06:18:44.059Z,6.7
2016-04-17T06:21:46.371Z,6.7
2016-04-17T06:24:58.745Z,6.7
2016-04-17T06:28:11.286Z,6.7
2016-04-17T06:31:23.685Z,6.7
2016-04-17T06:34:40.724Z,6.7
2016-04-17T06:37:43.326Z,6.8
2016-04-17T06:40:53.006Z,6.9
2016-04-17T06:44:05.391Z,7.1
2016-04-17T06:47:18.024Z,7.2
2016-04-17T06:50:30.548Z,7.2
2016-04-17T06:53:42.228Z,7.2
2016-04-17T06:56:54.752Z,7.1
2016-04-17T07:00:04.309Z,7.1
2016-04-17T07:03:19.130Z,7.2
2016-04-17T07:06:31.060Z,7.2
2016-04-17T07:09:43.037Z,7.3
2016-04-17T07:12:55.280Z,7.3
2016-04-17T07:16:07.243Z,7.3
2016-04-17T07:19:19.798Z,7.3
2016-04-17T07:22:31.713Z,7.2
2016-04-17T07:25:44.048Z,7.1
2016-04-17T07:28:56.262Z,7
2016-04-17T07:32:08.270Z,7
2016-04-17T07:35:20.700Z,7
2016-04-17T07:38:37.287Z,7.1
2016-04-17T07:41:44.888Z,7.2
2016-04-17T07:44:47.210Z,7.3
2016-04-17T07:47:59.407Z,7.3
2016-04-17T07:51:11.478Z,7.3
2016-04-17T07:54:23.893Z,7.3
2016-04-17T07:57:41.306Z,7.5
2016-04-17T08:00:41.940Z,8.4
2016-04-17T08:03:56.622Z,9.1
2016-04-17T08:07:07.114Z,9.7
2016-04-17T08:10:19.514Z,9.7
2016-04-17T08:16:45.108Z,10.7
2016-04-17T08:19:48.443Z,11.7
2016-04-17T08:22:59.173Z,13.7
2016-04-17T08:26:11.790Z,13.5
2016-04-17T08:29:24.487Z,13
2016-04-17T08:32:42.322Z,12.8
2016-04-17T08:35:45.627Z,13.3
2016-04-17T08:38:58.541Z,13.8
2016-04-17T08:42:11.006Z,13.3
2016-04-17T08:45:23.701Z,12.8
2016-04-17T08:48:41.007Z,12.4
2016-04-17T08:51:43.827Z,12.7
2016-04-17T08:54:56.787Z,12.9
2016-04-17T08:58:09.456Z,13.7
2016-04-17T09:01:23.042Z,16.9
2016-04-17T09:04:41.564Z,17.8
2016-04-17T09:07:45.261Z,18.6
2016-04-17T09:10:56.955Z,17.9
2016-04-17T09:14:09.654Z,17.2
2016-04-17T09:17:22.413Z,16.1
2016-04-17T09:20:39.999Z,15.3
2016-04-17T09:23:43.037Z,15.4
2016-04-17T09:26:55.406Z,15
2016-04-17T09:30:07.948Z,14.5
2016-04-17T09:33:20.425Z,13.5
2016-04-17T09:36:38.401Z,14.6
2016-04-17T09:39:42.441Z,17.7
2016-04-17T09:42:55.870Z,18
2016-04-17T09:46:09.288Z,19.1
2016-04-17T09:49:21.874Z,17.8
2016-04-17T09:52:39.335Z,16
2016-04-17T09:55:42.249Z,15.1
2016-04-17T09:58:54.835Z,15
2016-04-17T10:02:04.234Z,15.2
2016-04-17T10:05:18.823Z,14
2016-04-17T10:08:31.331Z,13.5
2016-04-17T10:11:44.105Z,13.4
2016-04-17T10:14:56.613Z,13.2
2016-04-17T10:18:09.358Z,12.9
2016-04-17T10:21:21.944Z,12.5
2016-04-17T10:24:39.218Z,12.3
2016-04-17T10:27:42.116Z,11.9
2016-04-17T10:30:54.953Z,11.7
2016-04-17T10:34:07.836Z,11.7
2016-04-17T10:37:20.393Z,11.8
2016-04-17T10:40:38.292Z,12.2
2016-04-17T10:43:46.394Z,12.5
2016-04-17T10:46:49.262Z,12.6
2016-04-17T10:50:02.067Z,12.2
2016-04-17T10:53:14.546Z,11.9
2016-04-17T10:56:26.882Z,11.7
2016-04-17T10:59:44.485Z,11.7
2016-04-17T11:02:47.335Z,11.8
2016-04-17T11:05:59.859Z,11.7
2016-04-17T11:09:12.245Z,11.6
2016-04-17T11:12:24.847Z,11.5
2016-04-17T11:15:42.433Z,11.2
2016-04-17T11:18:45.269Z,10.9
2016-04-17T11:21:57.934Z,11
2016-04-17T11:25:10.598Z,11.1
2016-04-17T11:28:23.155Z,11
2016-04-17T11:31:41.007Z,11.1
2016-04-17T11:34:43.829Z,11.3
2016-04-17T11:37:56.742Z,11.3
2016-04-17T11:41:08.672Z,11.2
2016-04-17T11:44:21.356Z,11.2
2016-04-17T11:47:31.661Z,11.2
2016-04-17T11:50:44.355Z,11.4
2016-04-17T11:53:56.941Z,11.6
2016-04-17T11:57:07.793Z,11.5
2016-04-17T12:00:20.602Z,11.5
2016-04-17T12:03:38.282Z,11.6
2016-04-17T12:06:45.977Z,11.5
2016-04-17T12:09:48.969Z,11.6
2016-04-17T12:12:59.243Z,11.6
2016-04-17T12:16:11.860Z,11.6
2016-04-17T12:19:22.230Z,11.5
2016-04-17T12:22:41.222Z,11.5
2016-04-17T12:25:44.059Z,11.6
2016-04-17T12:28:56.849Z,11.7
2016-04-17T12:32:09.404Z,11.6
2016-04-17T12:35:21.211Z,11.5
2016-04-17T12:38:38.657Z,11.3
2016-04-17T12:41:46.571Z,11.3
2016-04-17T12:44:47.484Z,11.4
2016-04-17T12:48:01.947Z,11.4
2016-04-17T12:51:14.660Z,11.4
2016-04-17T12:54:27.230Z,11.2
2016-04-17T12:57:44.754Z,11
2016-04-17T13:00:47.669Z,10.9
2016-04-17T13:04:00.380Z,11.1
2016-04-17T13:07:12.872Z,11.1
2016-04-17T13:10:25.429Z,11
2016-04-17T13:13:43.188Z,11.1
2016-04-17T13:16:45.853Z,11.2
2016-04-17T13:19:58.283Z,11.2
2016-04-17T13:23:08.916Z,11.1
2016-04-17T13:26:23.426Z,11.1
2016-04-17T13:29:40.996Z,11.2
2016-04-17T13:32:43.880Z,11.3
2016-04-17T13:35:56.466Z,11.4
2016-04-17T13:39:08.755Z,11.4
2016-04-17T13:42:21.673Z,11.5
2016-04-17T13:45:38.868Z,11.5
2016-04-17T13:48:46.673Z,11.4
2016-04-17T13:51:49.540Z,11.2
2016-04-17T13:55:02.252Z,11.1
2016-04-17T13:58:14.713Z,11.1
2016-04-17T14:01:27.271Z,11.1
2016-04-17T14:04:44.715Z,11
2016-04-17T14:07:47.411Z,10.8
2016-04-17T14:10:59.528Z,10.9
2016-04-17T14:14:12.271Z,11
2016-04-17T14:17:24.969Z,11
2016-04-17T14:20:42.617Z,11.1
2016-04-17T14:23:45.345Z,11.3
2016-04-17T14:26:57.884Z,11.3
2016-04-17T14:30:10.925Z,11.3
2016-04-17T14:33:21.247Z,11.1
2016-04-17T14:36:38.786Z,10.8
2016-04-17T14:39:46.388Z,10.7
2016-04-17T14:42:49.037Z,10.6
2016-04-17T14:46:01.468Z,10.6
2016-04-17T14:49:13.835Z,10.6
2016-04-17T14:52:26.329Z,10.6
2016-04-17T14:55:43.369Z,10.6
2016-04-17T14:58:46.345Z,10.7
2016-04-17T15:01:57.919Z,10.9
2016-04-17T15:05:10.208Z,11
2016-04-17T15:08:22.726Z,10.8
2016-04-17T15:11:40.279Z,10.6
2016-04-17T15:14:43.083Z,10.6
2016-04-17T15:17:55.745Z,10.7
2016-04-17T15:21:08.434Z,10.7
2016-04-17T15:24:20.243Z,10.6
2016-04-17T15:27:37.616Z,10.5
2016-04-17T15:30:45.471Z,10.7
2016-04-17T15:33:46.404Z,10.8
2016-04-17T15:37:00.710Z,10.9
2016-04-17T15:40:11.625Z,10.7
2016-04-17T15:43:24.058Z,10.6
2016-04-17T15:46:41.425Z,10.6
2016-04-17T15:49:44.261Z,10.5
2016-04-17T15:52:58.707Z,10.5
2016-04-17T15:56:05.277Z,10.4
2016-04-17T15:59:17.645Z,10.2
2016-04-17T16:02:30.203Z,10.2
2016-04-17T16:05:45.350Z,10.1
2016-04-17T16:08:47.906Z,10.1
2016-04-17T16:12:00.352Z,10.1
2016-04-17T16:15:12.703Z,9.9
2016-04-17T16:18:25.011Z,9.8
2016-04-17T16:21:42.722Z,9.7
2016-04-17T16:24:45.340Z,9.7
2016-04-17T16:28:01.192Z,9.8
2016-04-17T16:31:10.262Z,9.8
2016-04-17T16:34:22.739Z,9.9
2016-04-17T16:37:40.375Z,10
2016-04-17T16:40:43.023Z,10
2016-04-17T16:43:55.438Z,10
2016-04-17T16:47:05.024Z,10
2016-04-17T16:50:17.704Z,10
2016-04-17T16:53:27.449Z,10
2016-04-17T16:56:44.957Z,10.1
2016-04-17T16:59:47.685Z,10
2016-04-17T17:03:00.348Z,10
2016-04-17T17:06:12.512Z,9.9
2016-04-17T17:09:24.958Z,9.8
2016-04-17T17:12:42.516Z,9.7
2016-04-17T17:15:45.242Z,9.6
2016-04-17T17:18:57.658Z,9.5
2016-04-17T17:22:09.837Z,9.5
2016-04-17T17:25:22.111Z,9.3
2016-04-17T17:28:39.340Z,9.2
2016-04-17T17:31:46.989Z,9.1
2016-04-17T17:34:49.529Z,9.1
2016-04-17T17:38:00.067Z,9
2016-04-17T17:41:12.231Z,8.9
2016-04-17T17:44:24.630Z,8.8
2016-04-17T17:50:48.775Z,8.6
2016-04-17T17:54:01.032Z,8.5
2016-04-17T17:57:09.181Z,8.5
2016-04-17T18:00:21.095Z,8.5
2016-04-17T18:03:38.387Z,8.5
2016-04-17T18:06:46.240Z,8.4
2016-04-17T18:09:48.762Z,8.4
2016-04-17T18:12:57.833Z,8.3
2016-04-17T18:16:12.169Z,8.3
2016-04-17T18:19:24.116Z,8.4
2016-04-17T18:22:41.345Z,8.3
2016-04-17T18:25:43.978Z,8.3
2016-04-17T18:28:56.236Z,8.2
2016-04-17T18:32:08.306Z,8.1
2016-04-17T18:35:20.518Z,7.9
2016-04-17T18:38:37.920Z,7.8
2016-04-17T18:41:45.302Z,7.7
2016-04-17T18:44:47.826Z,7.7
2016-04-17T18:47:59.958Z,7.6
2016-04-17T18:51:11.889Z,7.5
2016-04-17T18:54:24.381Z,7.4
2016-04-17T18:57:40.220Z,7.3
2016-04-17T19:00:42.572Z,7.3
2016-04-17T19:03:54.862Z,7.2
2016-04-17T19:07:07.338Z,7.2
2016-04-17T19:10:19.128Z,7.2
2016-04-17T19:13:27.511Z,7.1
2016-04-17T19:16:41.334Z,7.1
2016-04-17T19:19:43.826Z,7.1
2016-04-17T19:22:56.069Z,7
2016-04-17T19:26:08.420Z,7
2016-04-17T19:29:20.007Z,7
2016-04-17T19:32:32.015Z,6.9
2016-04-17T19:35:44.479Z,6.9
2016-04-17T19:38:56.549Z,6.8
2016-04-17T19:42:08.745Z,6.7
2016-04-17T19:45:21.143Z,6.6
2016-04-17T19:48:32.089Z,6.6
2016-04-17T19:51:44.568Z,6.6
2016-04-17T19:54:56.920Z,6.5
2016-04-17T19:58:08.788Z,6.5
2016-04-17T20:01:20.952Z,6.5
2016-04-17T20:04:38.119Z,6.4
2016-04-17T20:07:45.237Z,6.4
2016-04-17T20:10:47.495Z,6.4
2016-04-17T20:14:00.378Z,6.3
2016-04-17T20:17:12.703Z,6.3
2016-04-17T20:20:24.666Z,6.3
2016-04-17T20:23:41.955Z,6.2
2016-04-17T20:26:44.134Z,6.2
2016-04-17T20:29:56.158Z,6.2
2016-04-17T20:33:08.479Z,6.1
2016-04-17T20:36:20.862Z,6
2016-04-17T20:39:37.591Z,5.9
2016-04-17T20:42:45.021Z,5.9
2016-04-17T20:45:47.373Z,5.9
2016-04-17T20:48:59.443Z,5.8
2016-04-17T20:52:11.718Z,5.8
2016-04-17T20:55:23.944Z,5.8
2016-04-17T20:58:41.814Z,5.7
2016-04-17T21:01:44.057Z,5.7
2016-04-17T21:04:56.018Z,5.7
2016-04-17T21:08:08.089Z,5.6
2016-04-17T21:11:20.081Z,5.5
2016-04-17T21:14:32.057Z,5.5
2016-04-17T21:17:43.085Z,5.4
2016-04-17T21:20:55.219Z,5.4
2016-04-17T21:24:07.070Z,5.4
2016-04-17T21:27:19.094Z,5.3
2016-04-17T21:30:31.087Z,5.3
2016-04-17T21:33:43.020Z,5.3
2016-04-17T21:36:54.871Z,5.2
2016-04-17T21:40:06.581Z,5.2
2016-04-17T21:43:14.964Z,5.2
2016-04-17T21:46:26.380Z,5.1
2016-04-17T21:49:43.093Z,5.1
2016-04-17T21:52:45.023Z,5
2016-04-17T21:55:56.203Z,5
2016-04-17T21:59:07.726Z,4.9
2016-04-17T22:02:19.345Z,4.9
2016-04-17T22:05:28.118Z,4.9
2016-04-17T22:08:44.800Z,4.9
2016-04-17T22:11:46.574Z,4.9
2016-04-17T22:14:58.379Z,4.9
2016-04-17T22:18:09.888Z,4.9
2016-04-17T22:21:19.348Z,4.9
2016-04-17T22:24:29.075Z,4.8
2016-04-17T22:27:47.399Z,4.8
2016-04-17T22:30:49.235Z,4.8
2016-04-17T22:34:01.055Z,4.8
2016-04-17T22:37:12.782Z,4.8
2016-04-17T22:40:21.055Z,4.8
2016-04-17T22:43:32.579Z,4.7
2016-04-17T22:46:44.075Z,4.7
2016-04-17T22:49:55.004Z,4.6
2016-04-17T22:53:06.652Z,4.6
2016-04-17T22:56:17.911Z,4.6
2016-04-17T22:59:29.559Z,4.5
2016-04-17T23:02:45.821Z,4.5
2016-04-17T23:05:47.767Z,4.4
2016-04-17T23:08:58.759Z,4.4
2016-04-17T23:12:10.469Z,4.4
2016-04-17T23:15:22.180Z,4.4
2016-04-17T23:18:38.970Z,4.3
2016-04-17T23:21:45.950Z,4.3
2016-04-17T23:24:47.910Z,4.2
2016-04-17T23:27:59.622Z,4.2
2016-04-17T23:31:11.709Z,4.1
2016-04-17T23:34:21.732Z,4
2016-04-17T23:37:38.614Z,4
2016-04-17T23:40:45.438Z,4
2016-04-17T23:43:47.525Z,3.9
2016-04-17T23:46:59.110Z,3.9
2016-04-17T23:50:10.697Z,3.9
2016-04-17T23:53:22.721Z,3.8
2016-04-17T23:56:39.416Z,3.8
2016-04-17T23:59:46.349Z,3.9
